LGRX/GPA METAR and TAF weather

Enter ICAO airport designator
Station Type Date Time Source
LGRX METAR 2020/12/06 01:50 UTC NOAA

LGRX 060150Z 06004KT 9999 FEW060 10/07 Q1015


Station Type Date Time Source
LGRX Decoded METAR 2020/12/06 01:50 UTC NOAA

Araxos Airport , Greece (LGRX) 38-09N 021-25E 12M
Dec 05, 2020 - 08:50 PM EST / 2020.12.06 0150 UTC
Wind: from the ENE (060 degrees) at 5 MPH (4 KT):0
Visibility: greater than 7 mile(s):0
Sky conditions: mostly clear
Temperature: 50 F (10 C)
Dew Point: 44 F (7 C)
Relative Humidity: 81%
Pressure (altimeter): 29.97 in. Hg (1015 hPa)
ob: LGRX 060150Z 06004KT 9999 FEW060 10/07 Q1015
cycle: 2

Station Type Date Time Source
LGRX TAF 2020/03/18 09:39 UTC NOAA

TAF LGRX 180800Z 1809/1821 33006KT 9999 FEW030
BECMG 1816/1818 07010KT

Example: see airport list